Time;durP1;ratioP1;P1;durP2;ratioP2;P2;SDS_P1;SDS_P2;PMS_P1;PMS_P2;Temp;Humidity;BMP_temperature;BMP_pressure;BME280_temperature;BME280_humidity;BME280_pressure;Samples;Min_cycle;Max_cycle;Signal;HPM_P1;HPM_P2
2020/12/01 00:00:35;;;;;;;12.07;10.87;;;3.00;56.20;;;;;;5035141;28;20734;-69
2020/12/01 00:03:02;;;;;;;11.63;10.47;;;3.00;56.20;;;;;;5032630;28;20727;-69
2020/12/01 00:05:29;;;;;;;11.37;10.30;;;3.00;56.20;;;;;;5037542;28;20206;-68
2020/12/01 00:07:55;;;;;;;11.43;10.23;;;3.00;56.20;;;;;;5040783;28;20237;-68
2020/12/01 00:10:22;;;;;;;11.50;10.40;;;3.00;56.20;;;;;;5040101;28;21457;-69
2020/12/01 00:12:50;;;;;;;11.83;10.67;;;3.00;56.40;;;;;;5039887;28;20236;-68
2020/12/01 00:15:21;;;;;;;11.60;10.50;;;3.00;56.50;;;;;;5040219;28;20217;-68
2020/12/01 00:17:48;;;;;;;9.43;8.53;;;3.00;56.40;;;;;;5038384;28;20703;-68
2020/12/01 00:20:19;;;;;;;10.17;9.13;;;2.90;56.40;;;;;;5038007;28;20240;-70
2020/12/01 00:22:45;;;;;;;9.27;8.33;;;2.90;56.40;;;;;;5039773;28;20602;-69
2020/12/01 00:25:14;;;;;;;10.07;9.07;;;2.90;56.50;;;;;;5039982;28;20248;-70
2020/12/01 00:27:41;;;;;;;9.13;8.27;;;2.90;56.60;;;;;;5035939;28;20296;-69
2020/12/01 00:30:12;;;;;;;9.60;8.63;;;2.90;56.70;;;;;;5038194;28;20295;-69
2020/12/01 00:32:39;;;;;;;9.60;8.60;;;2.90;56.90;;;;;;5037531;28;20245;-69
2020/12/01 00:35:08;;;;;;;10.13;9.13;;;2.90;56.90;;;;;;5038433;28;20205;-69
2020/12/01 00:37:36;;;;;;;10.10;9.10;;;2.90;56.90;;;;;;5037342;28;20217;-70
2020/12/01 00:40:04;;;;;;;10.53;9.47;;;3.00;57.00;;;;;;5038156;28;20255;-70
2020/12/01 00:42:30;;;;;;;10.13;8.90;;;3.00;57.20;;;;;;5037043;28;20233;-69
2020/12/01 00:44:58;;;;;;;10.07;8.60;;;3.10;57.20;;;;;;5038501;28;20223;-70
2020/12/01 00:47:24;;;;;;;9.77;8.77;;;3.10;57.20;;;;;;5035708;28;20213;-69
2020/12/01 00:49:51;;;;;;;9.73;8.80;;;3.20;57.10;;;;;;5038865;28;20214;-69
2020/12/01 00:52:18;;;;;;;10.83;9.73;;;3.20;57.10;;;;;;5035597;28;20574;-69
2020/12/01 00:54:44;;;;;;;9.70;8.80;;;3.20;57.10;;;;;;5035984;28;20205;-69
2020/12/01 00:57:10;;;;;;;9.70;8.80;;;3.30;57.00;;;;;;5038922;28;20226;-70
2020/12/01 00:59:37;;;;;;;10.03;8.93;;;3.30;56.90;;;;;;5036520;28;20234;-69
2020/12/01 01:02:05;;;;;;;10.03;9.07;;;3.30;56.80;;;;;;5031176;28;20229;-69
2020/12/01 01:04:32;;;;;;;9.27;8.30;;;3.30;56.80;;;;;;5032425;28;20218;-69
2020/12/01 01:06:59;;;;;;;8.63;7.83;;;3.30;56.70;;;;;;5037339;28;20209;-69
2020/12/01 01:09:25;;;;;;;9.97;9.00;;;3.30;56.70;;;;;;5037927;28;20206;-69
2020/12/01 01:11:52;;;;;;;10.00;9.00;;;3.30;56.70;;;;;;5034664;28;21033;-70
2020/12/01 01:14:18;;;;;;;10.57;9.57;;;3.30;56.80;;;;;;5023980;28;20210;-69
2020/12/01 01:16:45;;;;;;;10.53;9.47;;;3.20;56.80;;;;;;5036893;28;20217;-69
2020/12/01 01:19:15;;;;;;;10.13;9.13;;;3.30;57.00;;;;;;5039487;28;20232;-68
2020/12/01 01:21:44;;;;;;;10.93;9.83;;;3.20;57.00;;;;;;5037651;28;20751;-70
2020/12/01 01:24:13;;;;;;;11.97;10.77;;;3.30;57.10;;;;;;5038495;28;20590;-70
2020/12/01 01:26:40;;;;;;;10.33;9.23;;;3.20;57.00;;;;;;5036331;28;20206;-68
2020/12/01 01:29:06;;;;;;;11.77;10.57;;;3.20;57.10;;;;;;5035827;28;20198;-70
2020/12/01 01:31:33;;;;;;;10.43;9.43;;;3.20;57.10;;;;;;5033339;28;20237;-68
2020/12/01 01:33:59;;;;;;;11.40;10.20;;;3.20;57.10;;;;;;5034998;28;20205;-70
2020/12/01 01:36:33;;;;;;;11.00;9.90;;;3.20;57.10;;;;;;5035032;28;20228;-69
2020/12/01 01:38:59;;;;;;;11.20;10.10;;;3.30;57.20;;;;;;5037344;28;20222;-69
2020/12/01 01:41:30;;;;;;;12.10;10.67;;;3.30;57.20;;;;;;5035434;28;20209;-69
2020/12/01 01:43:57;;;;;;;12.27;10.97;;;3.30;57.40;;;;;;5035719;28;20694;-70
2020/12/01 01:46:38;;;;;;;11.37;10.20;;;3.40;57.50;;;;;;5034995;28;20594;-70
2020/12/01 01:49:12;;;;;;;11.87;10.77;;;3.40;57.50;;;;;;5034716;28;20207;-70
2020/12/01 01:51:47;;;;;;;10.53;9.43;;;3.40;57.20;;;;;;5038315;28;20238;-69
2020/12/01 01:54:17;;;;;;;10.60;9.60;;;3.50;57.30;;;;;;5035528;28;20210;-70
2020/12/01 01:56:48;;;;;;;10.33;9.33;;;3.50;57.10;;;;;;5039034;28;20206;-70
2020/12/01 01:59:15;;;;;;;10.53;9.03;;;3.50;57.00;;;;;;5037027;28;20217;-70
2020/12/01 02:01:42;;;;;;;9.97;8.97;;;3.50;57.00;;;;;;5033574;28;20744;-71
2020/12/01 02:04:30;;;;;;;10.87;9.87;;;3.60;57.00;;;;;;5036857;28;20198;-68
2020/12/01 02:07:01;;;;;;;9.50;8.57;;;3.60;56.90;;;;;;5036225;28;20221;-69
2020/12/01 02:09:33;;;;;;;10.33;9.33;;;3.60;57.00;;;;;;5036973;28;20208;-71
2020/12/01 02:12:04;;;;;;;10.73;9.73;;;3.60;57.10;;;;;;5037244;28;20224;-69
2020/12/01 02:14:35;;;;;;;10.43;9.50;;;3.60;57.20;;;;;;5036520;28;20852;-69
2020/12/01 02:17:18;;;;;;;10.13;9.17;;;3.60;57.20;;;;;;5032632;28;20209;-68
2020/12/01 02:19:47;;;;;;;9.33;8.43;;;3.70;57.30;;;;;;5036791;28;20229;-69
2020/12/01 02:22:18;;;;;;;9.77;8.87;;;3.70;57.10;;;;;;5036049;28;20696;-68
2020/12/01 02:24:46;;;;;;;10.07;9.17;;;3.70;57.10;;;;;;5036907;28;20210;-69
2020/12/01 02:27:16;;;;;;;9.87;8.97;;;3.70;57.00;;;;;;5036747;28;20202;-69
2020/12/01 02:29:47;;;;;;;9.73;8.80;;;3.70;57.00;;;;;;5036693;28;20202;-69
2020/12/01 02:32:15;;;;;;;8.93;8.10;;;3.70;56.90;;;;;;5034696;28;20225;-69
2020/12/01 02:34:45;;;;;;;9.53;8.63;;;3.70;56.90;;;;;;5035852;28;20206;-69
2020/12/01 02:37:16;;;;;;;9.50;8.60;;;3.80;56.90;;;;;;5035714;28;20243;-69
2020/12/01 02:39:43;;;;;;;10.07;9.10;;;3.80;56.90;;;;;;5036069;28;20237;-70
2020/12/01 02:42:16;;;;;;;10.07;9.10;;;3.70;56.90;;;;;;5035956;28;20225;-69
2020/12/01 02:44:43;;;;;;;9.73;8.73;;;3.70;56.90;;;;;;5032848;28;20231;-69
2020/12/01 02:47:10;;;;;;;10.57;9.57;;;3.80;57.00;;;;;;5034660;28;20217;-70
2020/12/01 02:49:36;;;;;;;9.73;8.83;;;3.80;57.00;;;;;;5035619;28;20693;-70
2020/12/01 02:52:04;;;;;;;10.50;9.50;;;3.80;56.90;;;;;;5034981;28;20875;-69
2020/12/01 02:54:30;;;;;;;12.30;11.07;;;3.80;56.90;;;;;;5035673;28;20217;-69
2020/12/01 02:56:57;;;;;;;11.67;10.57;;;3.80;56.60;;;;;;5035563;28;20205;-70
2020/12/01 02:59:24;;;;;;;10.87;9.87;;;3.80;56.60;;;;;;5036100;28;20265;-69
2020/12/01 03:01:51;;;;;;;10.83;9.67;;;3.70;56.50;;;;;;5035128;28;20277;-69
2020/12/01 03:04:17;;;;;;;9.90;8.90;;;3.70;56.50;;;;;;5036981;28;20199;-68
2020/12/01 03:06:44;;;;;;;9.40;8.47;;;3.70;56.60;;;;;;5034053;28;20206;-69
2020/12/01 03:09:14;;;;;;;9.50;8.60;;;3.60;56.70;;;;;;5034440;28;20225;-70
2020/12/01 03:11:41;;;;;;;8.70;7.90;;;3.60;56.80;;;;;;5032596;28;20225;-70
2020/12/01 03:14:08;;;;;;;9.27;8.37;;;3.60;56.80;;;;;;5035330;28;20221;-69
2020/12/01 03:16:35;;;;;;;9.23;8.33;;;3.60;56.90;;;;;;5032265;28;20209;-69
2020/12/01 03:19:01;;;;;;;9.67;8.70;;;3.60;56.90;;;;;;5034947;28;20788;-68
2020/12/01 03:21:28;;;;;;;9.67;8.70;;;3.60;57.00;;;;;;5035064;28;20210;-69
2020/12/01 03:23:55;;;;;;;9.53;8.63;;;3.60;57.00;;;;;;5034345;28;20221;-69
2020/12/01 03:26:21;;;;;;;8.97;8.03;;;3.60;57.10;;;;;;5036387;28;20242;-70
2020/12/01 03:28:48;;;;;;;9.80;8.90;;;3.60;57.10;;;;;;5037137;28;20682;-69
2020/12/01 03:31:20;;;;;;;10.50;9.40;;;3.60;57.10;;;;;;5035205;28;20291;-69
2020/12/01 03:33:48;;;;;;;9.43;8.63;;;3.70;57.30;;;;;;5033945;28;20283;-70
2020/12/01 03:36:15;;;;;;;8.90;8.10;;;3.70;57.30;;;;;;5037059;28;20210;-69
2020/12/01 03:38:42;;;;;;;9.27;8.37;;;3.70;57.40;;;;;;5034193;28;20228;-69
2020/12/01 03:41:09;;;;;;;9.83;8.93;;;3.70;57.30;;;;;;5037728;28;20205;-69
2020/12/01 03:43:35;;;;;;;9.27;8.40;;;3.80;57.40;;;;;;5039457;28;20218;-69
2020/12/01 03:46:03;;;;;;;9.53;8.63;;;3.80;57.40;;;;;;5038894;28;20201;-68
2020/12/01 03:48:29;;;;;;;10.67;9.67;;;3.80;57.40;;;;;;5038156;28;20202;-69
2020/12/01 03:50:57;;;;;;;10.97;9.87;;;3.90;57.30;;;;;;5040266;28;20207;-69
2020/12/01 03:53:23;;;;;;;10.73;9.63;;;3.90;57.10;;;;;;5042194;28;20237;-69
2020/12/01 03:55:50;;;;;;;9.90;9.00;;;3.90;57.00;;;;;;5041793;28;20206;-70
2020/12/01 03:58:16;;;;;;;10.10;9.13;;;3.90;56.90;;;;;;5038204;28;20209;-69
2020/12/01 04:00:43;;;;;;;9.63;8.63;;;3.90;56.90;;;;;;5036889;28;20249;-69
2020/12/01 04:03:10;;;;;;;10.03;9.03;;;3.90;57.00;;;;;;5037830;28;20226;-69
2020/12/01 04:05:37;;;;;;;9.93;8.93;;;3.90;57.10;;;;;;5041014;28;20689;-69
2020/12/01 04:08:08;;;;;;;9.67;8.67;;;3.90;57.20;;;;;;5037913;28;20695;-69
2020/12/01 04:10:34;;;;;;;9.80;8.90;;;3.90;57.20;;;;;;5039646;28;20205;-69
2020/12/01 04:13:01;;;;;;;10.10;9.10;;;3.90;57.20;;;;;;5040352;28;20221;-69
2020/12/01 04:15:27;;;;;;;10.00;9.03;;;4.00;57.40;;;;;;5040149;28;20226;-70
2020/12/01 04:17:54;;;;;;;9.37;8.37;;;4.00;57.50;;;;;;5037954;28;20214;-69
2020/12/01 04:20:21;;;;;;;9.90;8.90;;;4.00;57.50;;;;;;5039877;28;20240;-69
2020/12/01 04:22:48;;;;;;;10.17;9.17;;;4.10;57.50;;;;;;5039110;28;20236;-68
2020/12/01 04:25:22;;;;;;;9.83;8.83;;;4.10;57.50;;;;;;5040787;28;20205;-69
2020/12/01 04:27:50;;;;;;;11.67;10.57;;;4.20;57.50;;;;;;5038277;28;20208;-69
2020/12/01 04:30:17;;;;;;;10.97;9.83;;;4.20;57.20;;;;;;5038028;28;20190;-69
2020/12/01 04:32:44;;;;;;;11.00;9.90;;;4.30;57.00;;;;;;5039817;28;20737;-69
2020/12/01 04:35:11;;;;;;;11.97;10.77;;;4.30;56.90;;;;;;5040789;28;20198;-70
2020/12/01 04:37:38;;;;;;;11.73;10.53;;;4.30;56.80;;;;;;5039043;28;20281;-69
2020/12/01 04:40:06;;;;;;;10.33;9.33;;;4.30;56.60;;;;;;5037527;28;20226;-70
2020/12/01 04:42:43;;;;;;;10.27;9.27;;;4.20;56.80;;;;;;5037524;28;20276;-69
2020/12/01 04:45:13;;;;;;;11.60;10.00;;;4.20;56.80;;;;;;5036813;28;20209;-69
2020/12/01 04:47:55;;;;;;;11.27;10.17;;;4.20;56.70;;;;;;5037949;28;20217;-70
2020/12/01 04:50:32;;;;;;;10.80;9.80;;;4.20;56.70;;;;;;5038953;28;20261;-69
2020/12/01 04:53:42;;;;;;;9.30;8.43;;;4.10;57.40;;;;;;5036618;28;20709;-68
2020/12/01 04:56:34;;;;;;;8.53;7.60;;;4.10;56.90;;;;;;5039549;28;20202;-70
2020/12/01 04:59:47;;;;;;;9.60;8.70;;;4.20;57.00;;;;;;5038480;28;20232;-69
2020/12/01 05:02:32;;;;;;;9.67;8.77;;;4.20;57.10;;;;;;4947730;28;20233;-69
2020/12/01 05:05:40;;;;;;;9.40;8.50;;;4.20;56.90;;;;;;4949401;28;20220;-70
2020/12/01 05:08:32;;;;;;;8.70;7.90;;;4.30;57.00;;;;;;4969435;28;20209;-69
2020/12/01 05:11:11;;;;;;;9.80;8.90;;;4.30;56.80;;;;;;5035703;28;20718;-68
2020/12/01 05:13:38;;;;;;;9.63;8.73;;;4.30;56.70;;;;;;5035998;28;20233;-70
2020/12/01 05:16:24;;;;;;;9.80;8.90;;;4.40;56.60;;;;;;5038144;28;20226;-70
2020/12/01 05:18:50;;;;;;;9.60;8.70;;;4.40;56.60;;;;;;5039376;28;20297;-69
2020/12/01 05:21:24;;;;;;;9.37;8.47;;;4.40;56.40;;;;;;5036861;28;20244;-68
2020/12/01 05:23:52;;;;;;;9.47;8.53;;;4.40;56.30;;;;;;5038759;28;20206;-68
2020/12/01 05:26:22;;;;;;;9.43;8.47;;;4.40;56.30;;;;;;5039096;28;20201;-68
2020/12/01 05:28:52;;;;;;;9.70;8.80;;;4.30;56.30;;;;;;5038578;28;20213;-69
2020/12/01 05:31:23;;;;;;;9.47;8.60;;;4.30;56.20;;;;;;5034574;28;20213;-69
2020/12/01 05:34:00;;;;;;;9.57;8.60;;;4.30;56.20;;;;;;5037931;28;20202;-69
2020/12/01 05:36:33;;;;;;;9.07;8.13;;;4.30;56.10;;;;;;5038474;28;20201;-69
2020/12/01 05:39:03;;;;;;;8.57;7.70;;;4.30;56.10;;;;;;5037879;28;20206;-70
2020/12/01 05:41:33;;;;;;;8.30;7.60;;;4.30;56.10;;;;;;5039461;28;20295;-70
2020/12/01 05:44:03;;;;;;;7.83;7.13;;;4.30;56.20;;;;;;5039191;28;20193;-68
2020/12/01 05:46:41;;;;;;;8.23;7.43;;;4.30;56.30;;;;;;5037320;28;20658;-69
2020/12/01 05:49:30;;;;;;;7.77;6.97;;;4.40;56.40;;;;;;5038629;28;20436;-68
2020/12/01 05:52:05;;;;;;;8.13;7.17;;;4.40;56.40;;;;;;5038418;28;20734;-70
2020/12/01 05:54:38;;;;;;;7.80;7.10;;;4.50;56.40;;;;;;5038031;28;20209;-69
2020/12/01 05:57:18;;;;;;;8.20;7.47;;;4.50;56.20;;;;;;5037274;28;20217;-69
2020/12/01 05:59:56;;;;;;;7.70;6.90;;;4.60;56.10;;;;;;5035861;28;20244;-69
2020/12/01 06:02:38;;;;;;;7.37;6.50;;;4.60;56.10;;;;;;5036147;28;20229;-69
2020/12/01 06:05:20;;;;;;;7.70;6.83;;;4.60;56.10;;;;;;5037708;28;20206;-70
2020/12/01 06:07:50;;;;;;;7.40;6.60;;;4.70;56.10;;;;;;5037327;28;20209;-69
2020/12/01 06:10:27;;;;;;;6.87;6.27;;;4.80;56.80;;;;;;5037418;28;20194;-69
2020/12/01 06:13:24;;;;;;;7.30;6.67;;;4.80;56.10;;;;;;5037840;28;20232;-70
2020/12/01 06:16:13;;;;;;;7.57;6.77;;;4.90;55.90;;;;;;5037503;28;20217;-69
2020/12/01 06:18:59;;;;;;;7.20;6.47;;;4.90;55.70;;;;;;5035827;28;20711;-69
2020/12/01 06:21:47;;;;;;;7.20;6.50;;;5.00;55.70;;;;;;5033799;28;20201;-68
2020/12/01 06:25:20;;;;;;;6.90;6.20;;;5.00;55.60;;;;;;5033216;28;20248;-69
2020/12/01 06:28:32;;;;;;;6.30;5.70;;;5.00;55.60;;;;;;4966964;28;20219;-69
2020/12/01 06:31:36;;;;;;;6.70;6.00;;;5.00;55.90;;;;;;4964143;28;20209;-70
2020/12/01 06:34:59;;;;;;;6.47;5.87;;;5.10;55.90;;;;;;5035927;28;20228;-70
2020/12/01 06:37:40;;;;;;;7.37;6.67;;;5.10;55.80;;;;;;5034801;28;20205;-69
2020/12/01 06:40:26;;;;;;;8.63;7.23;;;5.20;55.80;;;;;;5035142;28;20222;-68
2020/12/01 06:42:59;;;;;;;6.70;5.80;;;5.20;55.60;;;;;;5034846;28;20320;-68
2020/12/01 06:45:34;;;;;;;8.50;6.50;;;5.20;55.60;;;;;;5036129;28;20216;-69
2020/12/01 06:48:11;;;;;;;7.23;6.53;;;5.10;55.60;;;;;;5039319;28;20208;-69
2020/12/01 06:50:48;;;;;;;7.23;6.53;;;5.10;55.60;;;;;;5036050;28;20206;-69
2020/12/01 06:53:28;;;;;;;7.60;6.90;;;5.10;55.70;;;;;;5038039;28;20779;-69
2020/12/01 06:55:57;;;;;;;8.53;6.47;;;5.00;55.70;;;;;;5032136;28;20210;-69
2020/12/01 06:58:41;;;;;;;6.70;5.97;;;5.00;55.90;;;;;;5032936;28;20643;-70
2020/12/01 07:01:26;;;;;;;6.37;5.77;;;4.90;56.30;;;;;;5036126;28;20225;-69
2020/12/01 07:04:34;;;;;;;6.60;6.00;;;4.90;56.40;;;;;;5035316;28;20218;-70
2020/12/01 07:07:22;;;;;;;6.53;5.93;;;4.90;56.80;;;;;;5031930;28;20206;-70
2020/12/01 07:09:51;;;;;;;6.20;5.60;;;4.90;56.90;;;;;;5032125;28;20247;-70
2020/12/01 07:12:35;;;;;;;6.27;5.67;;;5.00;57.00;;;;;;5032433;28;20714;-69
2020/12/01 07:15:13;;;;;;;5.83;5.30;;;5.00;57.40;;;;;;5032603;28;20219;-69
2020/12/01 07:17:51;;;;;;;5.80;5.30;;;5.00;57.30;;;;;;5033938;28;20213;-68
2020/12/01 07:20:42;;;;;;;7.63;6.37;;;5.00;57.30;;;;;;5031235;28;20530;-70
2020/12/01 07:23:25;;;;;;;7.10;6.40;;;5.00;57.60;;;;;;5031339;28;20230;-69
2020/12/01 07:26:01;;;;;;;6.80;6.10;;;5.00;57.60;;;;;;5035389;28;20239;-68
2020/12/01 07:28:37;;;;;;;6.80;6.00;;;5.10;57.90;;;;;;5035715;28;20202;-69
2020/12/01 07:31:19;;;;;;;6.53;5.93;;;5.10;58.30;;;;;;5030736;28;20206;-69
2020/12/01 07:33:54;;;;;;;7.00;6.30;;;5.10;58.80;;;;;;5034592;28;20697;-69
2020/12/01 07:36:39;;;;;;;6.30;5.70;;;5.10;58.70;;;;;;5035768;28;20198;-69
2020/12/01 07:39:15;;;;;;;6.47;5.87;;;5.10;58.90;;;;;;5035221;28;20198;-70
2020/12/01 07:41:50;;;;;;;6.33;5.73;;;5.10;59.80;;;;;;5033255;28;20232;-69
2020/12/01 07:44:20;;;;;;;6.20;5.60;;;5.10;59.20;;;;;;5034586;28;20214;-68
2020/12/01 07:47:07;;;;;;;7.47;6.40;;;5.10;59.20;;;;;;5031607;28;20229;-68
2020/12/01 07:49:35;;;;;;;6.57;5.53;;;5.00;59.20;;;;;;5035992;28;20207;-68
2020/12/01 07:52:22;;;;;;;5.87;5.37;;;5.00;59.10;;;;;;5034145;28;20244;-68
2020/12/01 07:55:00;;;;;;;5.50;5.00;;;5.00;59.40;;;;;;5033465;28;20210;-66
2020/12/01 07:57:28;;;;;;;5.63;4.90;;;5.00;59.70;;;;;;5036572;28;20630;-67
2020/12/01 07:59:55;;;;;;;5.80;5.23;;;5.00;59.80;;;;;;5034946;28;20303;-65
2020/12/01 08:02:31;;;;;;;5.27;4.77;;;5.00;60.00;;;;;;5037154;28;20241;-67
2020/12/01 08:05:05;;;;;;;5.87;5.13;;;5.00;60.50;;;;;;5036158;28;20210;-66
2020/12/01 08:07:32;;;;;;;8.30;5.43;;;5.00;61.10;;;;;;5038479;28;20285;-66
2020/12/01 08:10:10;;;;;;;5.97;5.03;;;5.10;61.30;;;;;;5036210;28;20210;-67
2020/12/01 08:12:48;;;;;;;6.17;5.57;;;5.10;62.00;;;;;;5031209;28;20222;-66
2020/12/01 08:15:20;;;;;;;5.43;4.93;;;5.20;61.90;;;;;;5035277;28;20240;-67
2020/12/01 08:17:47;;;;;;;7.17;5.37;;;5.30;61.70;;;;;;5036561;28;20256;-67
2020/12/01 08:20:19;;;;;;;5.63;5.13;;;5.30;62.00;;;;;;5036588;28;20227;-66
2020/12/01 08:22:55;;;;;;;7.47;6.00;;;5.40;62.30;;;;;;5031926;28;20280;-66
2020/12/01 08:25:29;;;;;;;6.10;5.50;;;5.40;62.30;;;;;;5033396;28;20224;-67
2020/12/01 08:28:14;;;;;;;7.17;5.07;;;5.40;62.40;;;;;;5040842;28;20205;-67
2020/12/01 08:30:56;;;;;;;6.97;5.60;;;5.50;63.00;;;;;;5038702;28;20210;-66
2020/12/01 08:33:45;;;;;;;5.50;5.00;;;5.50;62.80;;;;;;5035313;28;20248;-67
2020/12/01 08:36:39;;;;;;;5.77;5.27;;;5.60;62.80;;;;;;5040260;28;20207;-68
2020/12/01 08:39:41;;;;;;;5.67;5.13;;;5.60;62.40;;;;;;5040545;28;20206;-68
2020/12/01 08:42:22;;;;;;;5.33;4.83;;;5.60;62.00;;;;;;5037772;28;20260;-69
2020/12/01 08:45:04;;;;;;;7.40;5.20;;;5.60;62.10;;;;;;5038994;28;20708;-68
2020/12/01 08:47:32;;;;;;;5.37;4.87;;;5.60;62.50;;;;;;5037901;28;20225;-67
2020/12/01 08:49:58;;;;;;;6.50;5.63;;;5.60;62.50;;;;;;5036707;28;20769;-67
2020/12/01 08:52:40;;;;;;;5.47;4.97;;;5.60;62.40;;;;;;5037477;28;20260;-66
2020/12/01 08:55:25;;;;;;;6.67;5.00;;;5.60;62.80;;;;;;5039459;28;20271;-66
2020/12/01 09:00:57;;;;;;;5.40;4.90;;;5.60;63.60;;;;;;5036384;28;20260;-67
2020/12/01 09:03:26;;;;;;;4.83;4.43;;;5.60;64.00;;;;;;5039032;28;20617;-67
2020/12/01 09:05:52;;;;;;;4.90;4.47;;;5.70;64.20;;;;;;5042803;28;20209;-67
2020/12/01 09:11:42;;;;;;;4.73;4.33;;;5.80;65.10;;;;;;5031714;28;20201;-65
2020/12/01 09:14:23;;;;;;;5.57;4.73;;;5.90;65.20;;;;;;5038676;28;20259;-67
2020/12/01 09:16:58;;;;;;;5.00;4.53;;;6.00;64.60;;;;;;5039173;28;20214;-67
2020/12/01 09:22:30;;;;;;;6.07;5.47;;;6.10;64.60;;;;;;5039877;28;20729;-67
2020/12/01 09:25:16;;;;;;;5.40;4.90;;;6.20;64.50;;;;;;5038719;28;20264;-67
2020/12/01 09:27:45;;;;;;;7.27;5.17;;;6.20;64.50;;;;;;5038804;28;20210;-67
2020/12/01 09:30:29;;;;;;;5.30;4.80;;;6.20;64.00;;;;;;5039154;28;20202;-66
2020/12/01 09:32:56;;;;;;;6.53;5.47;;;6.20;64.00;;;;;;5038299;28;20237;-67
2020/12/01 09:35:23;;;;;;;5.40;4.87;;;6.20;64.00;;;;;;5039709;28;20202;-66
2020/12/01 09:37:50;;;;;;;5.67;4.50;;;6.20;64.40;;;;;;5039023;28;20786;-68
2020/12/01 09:40:18;;;;;;;5.70;5.20;;;6.20;64.50;;;;;;5040338;28;20606;-68
2020/12/01 09:42:48;;;;;;;5.57;5.07;;;6.20;64.50;;;;;;5038469;28;20725;-67
2020/12/01 09:45:19;;;;;;;4.80;4.30;;;6.30;64.20;;;;;;5038640;28;20202;-67
2020/12/01 09:47:49;;;;;;;6.37;4.43;;;6.30;64.40;;;;;;5036231;28;20210;-66
2020/12/01 09:50:20;;;;;;;4.80;3.97;;;6.30;64.90;;;;;;5039806;28;20198;-67
2020/12/01 09:53:16;;;;;;;4.40;4.00;;;6.30;64.80;;;;;;5038408;28;20237;-66
2020/12/01 10:09:36;;;;;;;4.67;3.33;;;6.50;66.40;;;;;;5038054;28;20213;-68
2020/12/01 10:18:21;;;;;;;4.63;4.13;;;6.80;67.10;;;;;;5039180;28;20288;-68
2020/12/01 10:34:49;;;;;;;5.87;4.10;;;7.40;67.80;;;;;;5039129;28;20244;-67
2020/12/01 10:37:15;;;;;;;4.40;4.00;;;7.50;67.90;;;;;;5040409;28;20231;-67
2020/12/01 10:39:44;;;;;;;3.83;3.47;;;7.60;68.80;;;;;;5039195;28;20726;-67
2020/12/01 10:42:14;;;;;;;4.47;4.10;;;7.70;68.10;;;;;;5038587;28;20582;-69
2020/12/01 10:44:41;;;;;;;4.63;3.83;;;7.80;68.10;;;;;;5036468;28;20202;-70
2020/12/01 10:47:09;;;;;;;4.20;3.80;;;7.90;68.10;;;;;;5038912;28;20423;-69
2020/12/01 10:49:36;;;;;;;4.30;3.90;;;8.00;68.20;;;;;;5039076;28;20217;-69
2020/12/01 10:52:04;;;;;;;3.83;3.43;;;8.10;68.30;;;;;;5037870;28;20237;-68
2020/12/01 10:54:30;;;;;;;3.77;3.47;;;8.20;68.00;;;;;;5039350;28;20225;-69
2020/12/01 10:56:57;;;;;;;3.83;3.40;;;8.30;67.70;;;;;;5039554;28;20237;-68
2020/12/01 10:59:25;;;;;;;3.80;3.50;;;8.30;67.80;;;;;;5039774;28;20213;-69
2020/12/01 11:01:52;;;;;;;4.07;3.50;;;8.30;68.10;;;;;;5038643;28;20716;-68
2020/12/01 11:04:20;;;;;;;3.57;3.23;;;8.40;68.30;;;;;;5038042;28;20697;-67
2020/12/01 11:06:46;;;;;;;3.83;3.53;;;8.50;68.30;;;;;;5037822;28;20210;-69
2020/12/01 11:09:16;;;;;;;3.40;3.10;;;8.60;68.10;;;;;;5037419;28;20201;-69
2020/12/01 11:11:42;;;;;;;3.53;3.30;;;8.60;67.90;;;;;;5035861;28;20244;-68
2020/12/01 11:14:10;;;;;;;4.20;3.80;;;8.70;67.70;;;;;;5037264;28;20216;-68
2020/12/01 11:16:37;;;;;;;3.67;3.37;;;8.70;68.40;;;;;;5040829;28;20202;-69
2020/12/01 11:19:05;;;;;;;3.80;3.50;;;8.80;67.60;;;;;;5046842;28;20213;-71
2020/12/01 11:21:36;;;;;;;3.50;3.20;;;8.80;67.60;;;;;;5045660;28;20225;-69
2020/12/01 11:24:06;;;;;;;3.80;3.40;;;8.80;67.60;;;;;;5047104;28;20694;-70
2020/12/01 11:26:33;;;;;;;3.73;3.43;;;8.90;67.20;;;;;;5039526;28;20225;-68
2020/12/01 11:29:05;;;;;;;3.60;3.30;;;8.90;67.00;;;;;;5036529;28;20204;-70
2020/12/01 11:31:32;;;;;;;3.80;3.47;;;8.90;66.90;;;;;;5035585;28;20203;-68
2020/12/01 11:34:16;;;;;;;4.37;3.40;;;8.80;66.80;;;;;;5037135;28;20217;-70
2020/12/01 11:36:43;;;;;;;3.10;2.90;;;8.90;67.20;;;;;;5037866;28;20205;-65
2020/12/01 11:39:13;;;;;;;3.13;2.83;;;8.90;66.80;;;;;;5037966;28;20202;-66
2020/12/01 11:41:41;;;;;;;81.97;14.00;;;8.90;67.00;;;;;;5037900;28;20240;-68
2020/12/01 11:44:11;;;;;;;45.10;9.37;;;8.90;67.00;;;;;;5038035;28;20205;-67
2020/12/01 11:46:38;;;;;;;9.97;4.20;;;8.90;66.80;;;;;;5034780;28;20210;-66
2020/12/01 11:49:04;;;;;;;3.50;3.20;;;8.90;66.70;;;;;;5037951;28;20221;-66
2020/12/01 11:51:37;;;;;;;3.63;3.10;;;8.90;66.70;;;;;;5037557;28;20276;-65
2020/12/01 11:54:06;;;;;;;3.43;3.13;;;8.90;66.90;;;;;;5037317;28;21261;-67
2020/12/01 11:56:32;;;;;;;3.43;3.13;;;8.90;66.80;;;;;;5034612;28;20292;-69
2020/12/01 11:59:02;;;;;;;5.33;3.77;;;8.90;66.90;;;;;;5035307;28;20206;-67
2020/12/01 12:01:29;;;;;;;5.57;3.70;;;9.00;67.10;;;;;;5036321;28;20237;-67
2020/12/01 12:03:55;;;;;;;4.63;4.23;;;9.00;67.10;;;;;;5037488;28;20213;-67
2020/12/01 12:06:22;;;;;;;4.50;3.90;;;9.00;67.00;;;;;;5040511;28;20222;-68
2020/12/01 12:08:50;;;;;;;4.00;3.70;;;9.10;67.00;;;;;;5041101;28;20264;-68
2020/12/01 12:11:21;;;;;;;4.30;3.90;;;9.10;66.70;;;;;;5039375;28;20297;-68
2020/12/01 12:13:47;;;;;;;4.87;4.47;;;9.10;66.30;;;;;;5039993;28;20201;-67
2020/12/01 12:16:16;;;;;;;4.97;4.57;;;9.10;66.20;;;;;;5041757;28;20205;-68
2020/12/01 12:18:42;;;;;;;4.97;4.47;;;9.10;66.10;;;;;;5042808;28;20207;-69
2020/12/01 12:21:09;;;;;;;4.63;4.23;;;9.00;66.00;;;;;;5040460;28;20226;-67
2020/12/01 12:23:35;;;;;;;4.63;4.23;;;9.00;65.80;;;;;;5042346;28;20248;-68
2020/12/01 12:26:03;;;;;;;4.33;3.90;;;9.00;65.80;;;;;;5041318;28;20221;-66
2020/12/01 12:28:30;;;;;;;5.53;3.80;;;8.90;66.60;;;;;;5041660;28;20556;-67
2020/12/01 12:31:01;;;;;;;3.43;3.13;;;8.90;65.80;;;;;;5038181;28;20225;-66
2020/12/01 12:33:29;;;;;;;4.73;4.10;;;8.80;65.90;;;;;;5039957;28;20301;-66
2020/12/01 12:35:58;;;;;;;4.67;4.27;;;8.80;65.80;;;;;;5041593;28;20206;-66
2020/12/01 12:38:26;;;;;;;4.30;3.87;;;8.80;65.80;;;;;;5041507;28;20210;-67
2020/12/01 12:40:52;;;;;;;6.57;4.23;;;8.80;65.80;;;;;;5041052;28;20255;-66
2020/12/01 12:43:22;;;;;;;5.17;4.67;;;8.70;65.70;;;;;;5041817;28;20241;-69
2020/12/01 12:45:48;;;;;;;5.23;4.30;;;8.70;65.70;;;;;;5041101;28;20214;-69
2020/12/01 12:48:17;;;;;;;5.70;4.17;;;8.60;65.60;;;;;;5037946;28;20729;-70
2020/12/01 12:50:44;;;;;;;4.67;4.17;;;8.60;65.70;;;;;;5037906;28;20210;-67
2020/12/01 12:53:10;;;;;;;4.23;3.83;;;8.60;65.70;;;;;;5040631;28;20226;-67
2020/12/01 12:55:37;;;;;;;4.73;4.33;;;8.50;65.60;;;;;;5038709;28;20213;-67
2020/12/01 12:58:04;;;;;;;4.37;3.97;;;8.50;65.60;;;;;;5039616;28;20236;-68
2020/12/01 13:00:32;;;;;;;5.50;5.00;;;8.50;65.60;;;;;;5036189;28;20706;-68
2020/12/01 13:02:59;;;;;;;4.53;4.10;;;8.50;65.70;;;;;;5040481;28;20609;-68
2020/12/01 13:05:26;;;;;;;5.43;4.93;;;8.40;65.50;;;;;;5041406;28;20218;-67
2020/12/01 13:07:53;;;;;;;4.40;3.93;;;8.40;65.50;;;;;;5040177;28;20625;-67
2020/12/01 13:10:20;;;;;;;4.33;4.00;;;8.40;65.50;;;;;;5039593;28;20201;-68
2020/12/01 13:12:46;;;;;;;4.20;3.90;;;8.40;65.50;;;;;;5037260;28;20328;-68
2020/12/01 13:15:14;;;;;;;4.37;4.07;;;8.30;65.50;;;;;;5038019;28;20213;-68
2020/12/01 13:17:41;;;;;;;4.70;4.30;;;8.30;65.50;;;;;;5041862;28;20304;-67
2020/12/01 13:20:15;;;;;;;4.93;4.53;;;8.30;65.50;;;;;;5038361;28;20234;-67
2020/12/01 13:22:42;;;;;;;4.60;4.20;;;8.30;65.60;;;;;;5037926;28;20220;-67
2020/12/01 13:25:10;;;;;;;4.90;4.50;;;8.30;65.90;;;;;;5039157;28;20280;-66
2020/12/01 13:27:39;;;;;;;4.70;4.30;;;8.30;66.10;;;;;;5038563;28;20202;-68
2020/12/01 13:30:14;;;;;;;4.83;4.43;;;8.30;66.20;;;;;;5036594;28;20248;-68
2020/12/01 13:32:41;;;;;;;5.13;4.63;;;8.30;66.40;;;;;;5038313;28;20225;-66
2020/12/01 13:35:09;;;;;;;4.87;4.47;;;8.30;66.40;;;;;;5037332;28;20218;-67
2020/12/01 13:37:36;;;;;;;5.20;4.70;;;8.40;67.40;;;;;;5038772;28;20202;-67
2020/12/01 13:40:07;;;;;;;5.07;4.67;;;8.40;66.80;;;;;;5038566;28;20214;-69
2020/12/01 13:42:33;;;;;;;4.90;4.50;;;8.50;66.90;;;;;;5039214;28;20595;-69
2020/12/01 13:45:00;;;;;;;4.07;3.77;;;8.50;66.70;;;;;;5039533;28;20228;-67
2020/12/01 13:47:26;;;;;;;4.53;4.13;;;8.50;66.50;;;;;;5039973;28;20207;-67
2020/12/01 13:49:55;;;;;;;4.47;4.17;;;8.60;66.60;;;;;;5040599;28;20214;-68
2020/12/01 13:52:21;;;;;;;4.40;4.10;;;8.60;66.60;;;;;;5037855;28;20288;-68
2020/12/01 13:54:47;;;;;;;4.37;3.97;;;8.60;66.50;;;;;;5039898;28;20209;-66
2020/12/01 13:57:14;;;;;;;4.80;4.40;;;8.70;66.50;;;;;;5040338;28;20202;-67
2020/12/01 13:59:40;;;;;;;4.97;4.47;;;8.70;66.40;;;;;;5038363;28;20252;-66
2020/12/01 14:02:06;;;;;;;4.77;4.37;;;8.70;66.20;;;;;;5034690;28;20777;-67